»·PEaware :: XOJ550 KEUG-KOAK

XOJ550 :: KEUG-KOAK

FLIGHT INFORMATION

Flight Status: Arrived
Operator:
XOJET
More flights by this operator :: More flights under this callsign
Pilot: Brandon G. (13)
Aircraft: BOMBARDIER BD-100 CHALLENGER 300
(CL30)
More flights by this aircraft type
Origin: KEUG Mahlon Sweet
United States
Destination: KOAK Metro Oakland Intl
United States
More flights between these airports :: More routes between these airports
Route: +EUG1 RBG SPAMY WNDSR2
File this flight plan on PilotEdge
Remarks:
Altitude:
(Current/Filed)
37,000ft
Speed:
(Current/Filed)
450kts
Departed: 17-Nov-18 11:47 AM
Arrived: 17-Nov-18 12:56 PM
Distance/Time
Traveled:
386nm/1:09
Distance/Time
To Go:
Arrived

Flight Plot

Page will automatically refresh every two minutes.

Flight plan parsing failed; only flown route is shown


Map Options




Map Legend


Flown Route
Filed Route
Departure Airport
Arrival Airport
Navaid (VOR, NDB)
Fix

Horizontal Profiles

Position Reports

Time Latitude Longitude Heading Altitude Ground
Speed
17-Nov-18 11:38 44.115092 -123.215524 1 371ft 0kts
17-Nov-18 11:39 44.115092 -123.215524 1 371ft 0kts
17-Nov-18 11:40 44.115092 -123.215524 1 371ft 0kts
17-Nov-18 11:41 44.115092 -123.215524 1 371ft 0kts
17-Nov-18 11:42 44.115092 -123.215524 1 371ft 0kts
17-Nov-18 11:43 44.115092 -123.215524 1 371ft 0kts
17-Nov-18 11:44 44.115092 -123.215524 1 371ft 0kts
17-Nov-18 11:45 44.115092 -123.215524 1 371ft 0kts
17-Nov-18 11:46 44.115092 -123.215524 1 371ft 0kts
17-Nov-18 11:47 44.115587 -123.215911 275 371ft 6kts
17-Nov-18 11:48 44.113691 -123.217331 261 369ft 0kts
17-Nov-18 11:49 44.113664 -123.218237 272 368ft 9kts
17-Nov-18 11:50 44.133230 -123.219207 358 1204ft 170kts
17-Nov-18 11:51 44.193845 -123.222593 358 5973ft 259kts
17-Nov-18 11:52 44.250075 -123.269638 274 9335ft 305kts
17-Nov-18 11:53 44.184055 -123.332917 179 13561ft 350kts
17-Nov-18 11:54 44.076128 -123.334731 180 16881ft 403kts
17-Nov-18 11:55 43.960529 -123.337022 180 20315ft 426kts
17-Nov-18 11:56 43.839011 -123.339422 180 23134ft 446kts
17-Nov-18 11:57 43.733555 -123.341501 180 25125ft 461kts
17-Nov-18 11:58 43.605217 -123.344019 180 27805ft 461kts
17-Nov-18 11:59 43.477443 -123.346517 180 30354ft 457kts
17-Nov-18 12:00 43.350466 -123.348985 180 32675ft 454kts
17-Nov-18 12:01 43.224398 -123.351431 180 34776ft 451kts
17-Nov-18 12:02 43.100029 -123.335040 171 36694ft 448kts
17-Nov-18 12:03 42.973364 -123.309778 171 37193ft 478kts
17-Nov-18 12:04 42.838256 -123.282591 172 37178ft 493kts
17-Nov-18 12:05 42.704465 -123.255756 172 37175ft 478kts
17-Nov-18 12:06 42.574119 -123.229706 172 37172ft 466kts
17-Nov-18 12:07 42.446793 -123.204364 172 37172ft 457kts
17-Nov-18 12:08 42.321265 -123.179483 172 37175ft 455kts
17-Nov-18 12:09 42.195118 -123.154576 172 37176ft 460kts
17-Nov-18 12:10 42.067403 -123.129467 172 37177ft 467kts
17-Nov-18 12:11 41.937516 -123.104030 172 37179ft 474kts
17-Nov-18 12:12 41.805801 -123.078342 172 37202ft 479kts
17-Nov-18 12:13 41.672885 -123.052529 172 37218ft 483kts
17-Nov-18 12:14 41.539940 -123.026818 172 37218ft 484kts
17-Nov-18 12:15 41.406423 -123.001104 172 37219ft 483kts
17-Nov-18 12:16 41.273209 -122.975555 172 37220ft 484kts
17-Nov-18 12:17 41.139914 -122.950097 172 37212ft 485kts
17-Nov-18 12:18 41.005443 -122.924477 173 37160ft 488kts
17-Nov-18 12:19 40.872494 -122.899321 173 37117ft 489kts
17-Nov-18 12:20 40.737536 -122.873870 173 37117ft 488kts
17-Nov-18 12:21 40.603591 -122.848705 173 37118ft 485kts
17-Nov-18 12:22 40.470159 -122.823736 173 37119ft 483kts
17-Nov-18 12:23 40.336766 -122.798873 173 37120ft 483kts
17-Nov-18 12:24 40.203547 -122.774141 173 37126ft 483kts
17-Nov-18 12:25 40.071919 -122.749790 173 37113ft 466kts
17-Nov-18 12:26 39.943475 -122.726138 174 36158ft 465kts
17-Nov-18 12:27 39.815333 -122.702630 174 34737ft 467kts
17-Nov-18 12:28 39.685987 -122.678987 173 33080ft 469kts
17-Nov-18 12:29 39.555225 -122.655174 173 30985ft 472kts
17-Nov-18 12:30 39.428537 -122.632173 173 28847ft 442kts
17-Nov-18 12:31 39.309581 -122.610674 173 25883ft 421kts
17-Nov-18 12:32 39.195625 -122.590456 175 23746ft 406kts
17-Nov-18 12:33 39.084470 -122.574595 175 22378ft 397kts
17-Nov-18 12:34 38.976539 -122.552157 170 21031ft 387kts
17-Nov-18 12:35 38.871746 -122.526074 170 19658ft 376kts
17-Nov-18 12:36 38.770119 -122.500737 170 18158ft 367kts
17-Nov-18 12:37 38.670797 -122.477016 174 16606ft 357kts
17-Nov-18 12:38 38.573432 -122.462183 174 14994ft 348kts
17-Nov-18 12:39 38.478239 -122.447694 174 13258ft 339kts
17-Nov-18 12:40 38.395519 -122.435124 174 11587ft 330kts
17-Nov-18 12:41 38.310858 -122.422273 174 10854ft 290kts
17-Nov-18 12:42 38.231510 -122.410241 173 9298ft 284kts
17-Nov-18 12:43 38.153608 -122.398306 173 7519ft 279kts
17-Nov-18 12:44 38.079305 -122.386932 173 6995ft 264kts
17-Nov-18 12:45 38.008674 -122.365472 145 6476ft 262kts
17-Nov-18 12:46 37.950468 -122.311296 143 4972ft 260kts
17-Nov-18 12:47 37.891222 -122.254944 143 4944ft 270kts
17-Nov-18 12:48 37.831490 -122.198120 143 4956ft 265kts
17-Nov-18 12:49 37.782792 -122.129166 113 4039ft 266kts
17-Nov-18 12:50 37.755486 -122.050001 113 4001ft 220kts
17-Nov-18 12:51 37.720650 -121.995185 133 4007ft 195kts
17-Nov-18 12:52 37.684872 -121.948117 133 3996ft 177kts
17-Nov-18 12:53 37.644194 -121.941574 242 3413ft 185kts
17-Nov-18 12:54 37.643509 -121.981848 324 3133ft 156kts
17-Nov-18 12:55 37.668541 -122.028952 289 3102ft 181kts
17-Nov-18 12:56 37.685938 -122.086251 293 2316ft 150kts
17-Nov-18 12:57 37.702285 -122.134885 294 1159ft 149kts
17-Nov-18 12:58 37.717385 -122.181705 290 419ft 136kts
17-Nov-18 12:59 37.728341 -122.214158 23 10ft 12kts
17-Nov-18 13:00 37.729110 -122.213503 104 10ft 9kts
17-Nov-18 13:01 37.729436 -122.211821 122 10ft 0kts
17-Nov-18 13:02 37.729436 -122.211821 122 10ft 0kts
17-Nov-18 13:03 37.729436 -122.211821 122 10ft 0kts
17-Nov-18 13:04 37.729436 -122.211821 122 10ft 0kts
17-Nov-18 13:05 37.729436 -122.211821 122 10ft 0kts
17-Nov-18 13:06 37.729436 -122.211821 122 10ft 0kts

Navigation Log

Ident Type
Flight plan parsing failed, navigation log unavailable